Time;durP1;ratioP1;P1;durP2;ratioP2;P2;SDS_P1;SDS_P2;PMS_P1;PMS_P2;Temp;Humidity;BMP_temperature;BMP_pressure;BME280_temperature;BME280_humidity;BME280_pressure;Samples;Min_cycle;Max_cycle;Signal;HPM_P1;HPM_P2
2021/09/05 00:01:44;;;;;;;48.90;27.30;;;14.10;97.50;;;;;;5051270;28;20413;-76
2021/09/05 00:04:09;;;;;;;58.50;31.00;;;14.10;97.50;;;;;;5057830;28;20382;-77
2021/09/05 00:06:35;;;;;;;53.10;29.70;;;13.90;97.50;;;;;;5052180;28;20397;-76
2021/09/05 00:09:01;;;;;;;51.50;30.17;;;14.00;99.50;;;;;;5052737;28;20462;-77
2021/09/05 00:11:26;;;;;;;50.00;29.20;;;14.10;98.20;;;;;;5053023;28;20473;-76
2021/09/05 00:13:52;;;;;;;52.55;29.40;;;14.00;98.10;;;;;;5052511;28;20470;-77
2021/09/05 00:16:18;;;;;;;53.08;29.02;;;14.00;98.00;;;;;;5050879;28;20866;-77
2021/09/05 00:18:43;;;;;;;58.60;30.88;;;14.00;98.30;;;;;;5051564;28;20385;-77
2021/09/05 00:21:09;;;;;;;56.03;30.02;;;14.00;98.10;;;;;;5051583;28;20389;-77
2021/09/05 00:23:34;;;;;;;53.20;29.40;;;13.90;99.70;;;;;;5050784;28;20870;-78
2021/09/05 00:26:00;;;;;;;51.53;29.00;;;13.90;99.90;;;;;;5050197;28;20412;-76
2021/09/05 00:28:26;;;;;;;51.57;28.77;;;14.00;99.90;;;;;;5049979;28;20385;-77
2021/09/05 00:30:51;;;;;;;56.47;32.20;;;14.10;99.20;;;;;;5050055;28;20432;-76
2021/09/05 00:33:17;;;;;;;57.38;32.08;;;14.10;97.20;;;;;;5049860;28;20431;-76
2021/09/05 00:35:42;;;;;;;54.25;30.25;;;14.20;97.00;;;;;;5050883;28;20388;-77
2021/09/05 00:38:08;;;;;;;52.22;28.30;;;14.30;94.00;;;;;;5051841;28;20385;-76
2021/09/05 00:40:33;;;;;;;55.97;28.60;;;14.00;94.30;;;;;;5051025;28;20421;-76
2021/09/05 00:42:59;;;;;;;49.73;28.03;;;14.00;97.40;;;;;;5050605;28;20378;-76
2021/09/05 00:45:24;;;;;;;53.80;28.05;;;13.90;99.30;;;;;;5049824;28;20389;-77
2021/09/05 00:47:50;;;;;;;57.08;29.58;;;13.90;99.90;;;;;;5050499;28;20386;-77
2021/09/05 00:50:16;;;;;;;51.30;29.27;;;14.10;99.90;;;;;;5054420;28;20385;-77
2021/09/05 00:52:41;;;;;;;54.95;29.10;;;14.20;97.60;;;;;;5050498;28;20785;-77
2021/09/05 00:55:08;;;;;;;52.57;28.80;;;14.10;96.60;;;;;;5052697;28;20876;-77
2021/09/05 00:57:34;;;;;;;58.15;29.77;;;14.20;96.40;;;;;;5056990;28;20485;-77
2021/09/05 00:59:59;;;;;;;54.50;28.93;;;14.00;97.40;;;;;;5057074;28;20396;-77
2021/09/05 01:02:25;;;;;;;58.57;28.30;;;14.00;99.00;;;;;;5055149;28;20393;-76
2021/09/05 01:04:51;;;;;;;50.30;27.80;;;14.20;96.70;;;;;;5055800;28;20389;-77
2021/09/05 01:07:16;;;;;;;45.43;27.00;;;14.20;95.20;;;;;;5055535;28;20859;-77
2021/09/05 01:09:42;;;;;;;42.13;25.73;;;14.20;92.90;;;;;;5057046;28;20417;-76
2021/09/05 01:12:09;;;;;;;53.17;26.77;;;14.00;94.90;;;;;;5055838;28;21006;-76
2021/09/05 01:14:34;;;;;;;49.13;26.83;;;14.00;95.80;;;;;;5053570;28;20381;-78
2021/09/05 01:17:00;;;;;;;46.37;26.70;;;14.00;95.60;;;;;;5052659;28;20809;-78
2021/09/05 01:19:27;;;;;;;45.00;26.80;;;14.00;96.90;;;;;;5054333;28;20393;-78
2021/09/05 01:21:53;;;;;;;48.72;26.95;;;14.00;95.40;;;;;;5055519;28;20392;-77
2021/09/05 01:24:20;;;;;;;47.80;26.58;;;14.00;96.90;;;;;;5053654;28;20750;-73
2021/09/05 01:26:48;;;;;;;47.38;26.63;;;14.10;91.60;;;;;;5051976;28;20388;-74
2021/09/05 01:29:15;;;;;;;47.20;25.48;;;14.20;89.80;;;;;;5051428;28;20465;-74
2021/09/05 01:31:50;;;;;;;46.80;25.90;;;14.10;90.80;;;;;;5051637;28;20401;-73
2021/09/05 01:34:18;;;;;;;47.08;26.33;;;14.10;90.80;;;;;;5051488;28;20807;-72
2021/09/05 01:36:44;;;;;;;42.38;25.92;;;14.10;91.80;;;;;;5051774;28;20397;-73
2021/09/05 01:39:12;;;;;;;43.60;26.30;;;13.90;91.40;;;;;;5051728;28;20960;-73
2021/09/05 01:41:38;;;;;;;49.53;25.73;;;13.90;94.70;;;;;;5051772;28;20385;-73
2021/09/05 01:44:06;;;;;;;43.33;25.33;;;14.10;90.70;;;;;;5051856;28;20472;-73
2021/09/05 01:46:32;;;;;;;46.53;24.27;;;14.20;86.40;;;;;;5051293;28;20428;-72
2021/09/05 01:48:58;;;;;;;45.07;24.80;;;14.20;86.10;;;;;;5050821;28;20491;-73
2021/09/05 01:51:24;;;;;;;46.45;26.02;;;14.10;87.00;;;;;;5051230;28;20803;-72
2021/09/05 01:53:49;;;;;;;49.70;27.27;;;14.20;86.30;;;;;;5051356;28;20465;-72
2021/09/05 01:56:15;;;;;;;53.30;26.05;;;14.10;86.30;;;;;;5053824;28;20374;-73
2021/09/05 01:58:41;;;;;;;48.50;25.95;;;14.10;88.40;;;;;;5055723;28;20428;-72
2021/09/05 02:01:07;;;;;;;52.60;27.55;;;14.10;88.00;;;;;;5044066;28;20395;-72
2021/09/05 02:03:36;;;;;;;51.50;26.70;;;14.10;87.50;;;;;;5040673;28;20456;-73
2021/09/05 02:06:01;;;;;;;51.93;27.77;;;14.00;88.90;;;;;;4989780;28;1750512;-73
2021/09/05 02:08:27;;;;;;;47.23;26.30;;;13.80;90.90;;;;;;5051201;28;20401;-74
2021/09/05 02:10:53;;;;;;;54.20;27.97;;;13.60;93.60;;;;;;5052044;28;20408;-74
2021/09/05 02:13:18;;;;;;;52.03;27.90;;;13.50;96.50;;;;;;5051849;28;20420;-74
2021/09/05 02:15:44;;;;;;;51.70;27.00;;;13.60;99.00;;;;;;5051717;28;20393;-74
2021/09/05 02:18:09;;;;;;;53.83;25.80;;;13.60;98.90;;;;;;5065902;28;20481;-73
2021/09/05 02:20:35;;;;;;;45.70;26.73;;;13.60;98.00;;;;;;5071947;28;20487;-74
2021/09/05 02:23:01;;;;;;;49.88;27.48;;;13.60;97.90;;;;;;5071872;28;20383;-74
2021/09/05 02:25:26;;;;;;;56.00;28.05;;;13.60;97.40;;;;;;5061257;28;20429;-74
2021/09/05 02:27:52;;;;;;;55.28;28.20;;;13.80;96.50;;;;;;5052965;28;20397;-76
2021/09/05 02:30:17;;;;;;;53.07;29.00;;;13.80;94.70;;;;;;5068666;28;20398;-78
2021/09/05 02:32:43;;;;;;;50.77;28.80;;;13.70;94.00;;;;;;5066725;28;20882;-78
2021/09/05 02:35:10;;;;;;;53.08;28.75;;;13.50;96.00;;;;;;5059138;28;20385;-78
2021/09/05 02:37:37;;;;;;;49.05;27.58;;;13.50;97.20;;;;;;5058148;28;20389;-77
2021/09/05 02:40:08;;;;;;;49.75;27.48;;;13.40;97.70;;;;;;5059276;28;20392;-78
2021/09/05 02:42:35;;;;;;;48.63;27.67;;;13.40;99.20;;;;;;5058577;28;20390;-78
2021/09/05 02:45:04;;;;;;;50.13;27.55;;;13.50;98.80;;;;;;5065956;28;20390;-78
2021/09/05 02:47:29;;;;;;;50.97;27.13;;;13.40;98.50;;;;;;5066538;28;20521;-78
2021/09/05 02:49:55;;;;;;;51.10;28.00;;;13.30;99.00;;;;;;5058301;28;20382;-77
2021/09/05 02:52:21;;;;;;;50.92;27.63;;;13.30;99.90;;;;;;5069926;28;20405;-77
2021/09/05 02:54:47;;;;;;;56.53;29.92;;;13.30;99.90;;;;;;5068908;28;20388;-78
2021/09/05 02:57:12;;;;;;;51.67;28.90;;;13.60;97.20;;;;;;5056457;28;20424;-77
2021/09/05 02:59:38;;;;;;;50.70;28.17;;;13.70;93.30;;;;;;5072924;28;20421;-79
2021/09/05 03:02:04;;;;;;;53.03;29.67;;;13.60;92.10;;;;;;5060993;28;20774;-78
2021/09/05 03:04:29;;;;;;;55.72;28.45;;;13.60;92.80;;;;;;5057429;28;20396;-79
2021/09/05 03:06:55;;;;;;;54.63;30.27;;;13.40;93.80;;;;;;5058806;28;20461;-78
2021/09/05 03:09:21;;;;;;;54.65;29.50;;;13.40;96.40;;;;;;5063946;28;20373;-78
2021/09/05 03:11:47;;;;;;;52.15;29.08;;;13.30;96.70;;;;;;5047962;28;20813;-78
2021/09/05 03:14:13;;;;;;;50.97;28.05;;;13.40;98.20;;;;;;5063317;28;20392;-78
2021/09/05 03:16:39;;;;;;;51.20;27.38;;;13.50;95.10;;;;;;5069414;28;20382;-78
2021/09/05 03:19:04;;;;;;;52.77;28.53;;;13.50;95.20;;;;;;5071235;28;20423;-78
2021/09/05 03:21:30;;;;;;;54.30;27.50;;;13.70;91.20;;;;;;5069532;28;20622;-78
2021/09/05 03:23:55;;;;;;;58.33;27.90;;;13.80;86.40;;;;;;5067590;28;20472;-77
2021/09/05 03:26:21;;;;;;;51.70;26.88;;;13.90;83.90;;;;;;5066491;28;20401;-77
2021/09/05 03:28:46;;;;;;;58.80;29.08;;;13.90;83.50;;;;;;5064043;28;20392;-78
2021/09/05 03:31:12;;;;;;;49.92;28.30;;;13.80;83.50;;;;;;5054161;28;20594;-78
2021/09/05 03:33:37;;;;;;;55.23;29.40;;;13.70;84.90;;;;;;5055372;28;20446;-78
2021/09/05 03:36:04;;;;;;;66.20;31.77;;;13.60;87.10;;;;;;5055340;28;20389;-78
2021/09/05 03:38:30;;;;;;;64.63;31.83;;;13.70;84.50;;;;;;5055476;28;20427;-78
2021/09/05 03:40:56;;;;;;;64.23;33.27;;;13.80;83.00;;;;;;5052437;28;20874;-78
2021/09/05 03:43:21;;;;;;;70.80;36.07;;;13.80;82.20;;;;;;5055551;28;20385;-78
2021/09/05 03:45:47;;;;;;;84.00;40.28;;;13.70;82.90;;;;;;5055020;28;20381;-78
2021/09/05 03:48:13;;;;;;;76.57;37.73;;;13.70;83.00;;;;;;5063469;28;20411;-77
2021/09/05 03:50:38;;;;;;;70.90;35.80;;;13.50;84.20;;;;;;5067647;28;20846;-77
2021/09/05 03:53:04;;;;;;;68.40;36.37;;;13.30;88.00;;;;;;5067971;28;20413;-77
2021/09/05 03:55:29;;;;;;;77.00;37.50;;;13.20;91.40;;;;;;5068764;28;20405;-77
2021/09/05 03:57:55;;;;;;;74.63;37.20;;;13.00;94.80;;;;;;5067065;28;20393;-77
2021/09/05 04:00:20;;;;;;;82.35;37.83;;;12.90;97.40;;;;;;5072495;28;20402;-78
2021/09/05 04:02:46;;;;;;;76.18;37.97;;;13.10;99.60;;;;;;5060079;28;20405;-78
2021/09/05 04:05:12;;;;;;;76.30;38.20;;;13.20;96.10;;;;;;5057938;28;20396;-79
2021/09/05 04:08:00;;;;;;;80.47;39.50;;;13.10;97.00;;;;;;5069047;28;20397;-80
2021/09/05 04:10:26;;;;;;;84.93;41.20;;;12.90;98.40;;;;;;5058380;28;20805;-78
2021/09/05 04:12:51;;;;;;;74.93;38.38;;;12.90;99.90;;;;;;5053868;28;20401;-77
2021/09/05 04:15:17;;;;;;;81.60;38.65;;;12.90;99.90;;;;;;5053742;28;20384;-77
2021/09/05 04:17:42;;;;;;;74.53;39.03;;;12.90;99.90;;;;;;5076518;28;20387;-77
2021/09/05 04:20:08;;;;;;;77.47;38.25;;;12.90;99.90;;;;;;5033753;28;20440;-78
2021/09/05 04:22:34;;;;;;;75.35;37.88;;;12.90;99.90;;;;;;5048994;28;20401;-77
2021/09/05 04:25:00;;;;;;;80.82;38.90;;;12.90;99.90;;;;;;5055344;28;20732;-77
2021/09/05 04:27:26;;;;;;;73.57;37.10;;;13.00;99.90;;;;;;5050710;28;20406;-77
2021/09/05 04:29:51;;;;;;;78.20;37.90;;;12.70;99.90;;;;;;5046955;28;20389;-77
2021/09/05 04:32:20;;;;;;;75.33;37.90;;;12.80;99.90;;;;;;5060744;28;20524;-78
2021/09/05 04:34:46;;;;;;;74.30;37.45;;;12.90;99.90;;;;;;5068093;28;20388;-77
2021/09/05 04:37:11;;;;;;;76.43;39.00;;;12.80;99.90;;;;;;5098479;28;20397;-77
2021/09/05 04:39:37;;;;;;;82.97;39.17;;;12.80;99.90;;;;;;5053624;28;20426;-77
2021/09/05 04:42:03;;;;;;;86.37;39.83;;;12.70;99.90;;;;;;5036686;28;20462;-78
2021/09/05 04:44:28;;;;;;;80.90;39.58;;;12.60;99.90;;;;;;5036786;28;20541;-78
2021/09/05 04:46:54;;;;;;;78.43;40.03;;;12.60;99.90;;;;;;5056492;28;20388;-78
2021/09/05 04:49:19;;;;;;;78.70;38.88;;;12.60;99.90;;;;;;5058426;28;20401;-78
2021/09/05 04:51:45;;;;;;;77.15;37.55;;;12.70;99.90;;;;;;5064124;28;20408;-78
2021/09/05 04:54:10;;;;;;;81.60;38.97;;;12.60;99.90;;;;;;5064879;28;20415;-78
2021/09/05 04:56:36;;;;;;;79.73;38.87;;;12.70;99.90;;;;;;5065748;28;20435;-77
2021/09/05 04:59:01;;;;;;;74.30;37.40;;;12.70;99.90;;;;;;5062606;28;20766;-76
2021/09/05 05:01:27;;;;;;;73.83;37.20;;;12.70;99.90;;;;;;5062758;28;20415;-77
2021/09/05 05:03:52;;;;;;;73.20;37.97;;;12.80;99.90;;;;;;5062686;28;20859;-79
2021/09/05 05:06:18;;;;;;;84.18;38.20;;;12.90;99.90;;;;;;5057902;28;20437;-78
2021/09/05 05:08:44;;;;;;;76.55;37.17;;;12.80;99.90;;;;;;5057817;28;20408;-78
2021/09/05 05:11:13;;;;;;;70.05;36.05;;;12.80;99.90;;;;;;5059491;28;20377;-78
2021/09/05 05:13:39;;;;;;;65.40;34.70;;;12.90;99.90;;;;;;5056573;28;20443;-77
2021/09/05 05:16:05;;;;;;;64.85;35.45;;;12.90;98.90;;;;;;5054593;28;20870;-78
2021/09/05 05:18:30;;;;;;;69.15;35.53;;;12.80;99.50;;;;;;5055783;28;20390;-76
2021/09/05 05:20:56;;;;;;;63.57;33.40;;;12.80;99.90;;;;;;5054793;28;20491;-76
2021/09/05 05:23:21;;;;;;;60.53;34.17;;;12.80;99.90;;;;;;5054714;28;20394;-77
2021/09/05 05:25:47;;;;;;;67.00;34.30;;;12.90;99.90;;;;;;5055451;28;20377;-76
2021/09/05 05:28:12;;;;;;;59.80;33.28;;;12.90;99.90;;;;;;5054722;28;20393;-77
2021/09/05 05:30:38;;;;;;;61.72;32.20;;;13.00;99.90;;;;;;5055660;28;20424;-76
2021/09/05 05:33:04;;;;;;;55.58;29.58;;;13.00;99.90;;;;;;5051355;28;20472;-78
2021/09/05 05:35:29;;;;;;;63.57;30.70;;;13.00;99.90;;;;;;5032878;28;20385;-73
2021/09/05 05:37:55;;;;;;;55.40;28.97;;;13.10;99.90;;;;;;5033093;28;20382;-73
2021/09/05 05:40:23;;;;;;;48.30;27.07;;;13.30;97.70;;;;;;5041413;28;20392;-73
2021/09/05 05:42:49;;;;;;;50.45;26.45;;;13.40;97.00;;;;;;5051677;28;20393;-73
2021/09/05 05:45:18;;;;;;;45.07;24.93;;;13.70;91.20;;;;;;5059615;28;20387;-72
2021/09/05 05:47:47;;;;;;;45.25;25.63;;;14.00;83.80;;;;;;5052464;28;20476;-72
2021/09/05 05:50:13;;;;;;;45.15;25.65;;;14.00;81.80;;;;;;5052414;28;20815;-73
2021/09/05 05:52:39;;;;;;;47.17;25.50;;;14.20;79.70;;;;;;5052510;28;20433;-73
2021/09/05 05:55:05;;;;;;;52.08;27.98;;;14.30;77.30;;;;;;5052425;28;20381;-73
2021/09/05 05:57:31;;;;;;;53.85;28.83;;;14.50;75.70;;;;;;5053126;28;20410;-73
2021/09/05 05:59:56;;;;;;;53.97;29.37;;;14.60;72.40;;;;;;5052661;28;20397;-73
2021/09/05 06:02:22;;;;;;;52.30;28.03;;;14.60;72.40;;;;;;5034422;28;20391;-75
2021/09/05 06:04:47;;;;;;;55.93;28.90;;;14.60;73.40;;;;;;5032126;28;20478;-73
2021/09/05 06:07:13;;;;;;;57.75;29.27;;;14.60;73.30;;;;;;5032822;28;20411;-73
2021/09/05 06:09:39;;;;;;;54.60;29.58;;;14.80;70.60;;;;;;5033221;28;20807;-73
2021/09/05 06:12:09;;;;;;;50.47;29.27;;;14.80;69.90;;;;;;5050860;28;20925;-72
2021/09/05 06:14:35;;;;;;;55.63;30.60;;;14.90;68.70;;;;;;5052086;28;20480;-72
2021/09/05 06:17:01;;;;;;;62.20;32.75;;;15.10;65.00;;;;;;5052447;28;20388;-72
2021/09/05 06:19:26;;;;;;;52.40;29.63;;;15.20;64.20;;;;;;5052317;28;20381;-74
2021/09/05 06:21:52;;;;;;;51.57;27.43;;;15.30;61.90;;;;;;5052117;28;20481;-72
2021/09/05 06:24:17;;;;;;;56.77;30.30;;;15.30;61.60;;;;;;5051569;28;20751;-72
2021/09/05 06:26:43;;;;;;;64.27;32.90;;;15.40;59.70;;;;;;5051440;28;20389;-72
2021/09/05 06:29:09;;;;;;;56.17;31.90;;;15.50;59.50;;;;;;5051160;28;20878;-73
2021/09/05 06:31:35;;;;;;;59.70;31.97;;;15.50;59.10;;;;;;5052351;28;20855;-73
2021/09/05 06:34:00;;;;;;;55.95;29.67;;;15.50;59.90;;;;;;5041370;28;20407;-72
2021/09/05 06:36:26;;;;;;;53.53;28.08;;;15.50;60.70;;;;;;5032730;28;20437;-73
2021/09/05 06:38:51;;;;;;;48.67;26.58;;;15.50;60.90;;;;;;5031880;28;20615;-73
2021/09/05 06:41:17;;;;;;;47.67;26.47;;;15.50;61.20;;;;;;5046704;28;20418;-72
2021/09/05 06:43:42;;;;;;;44.27;26.47;;;15.60;59.70;;;;;;5051320;28;20442;-75
2021/09/05 06:46:08;;;;;;;44.37;24.80;;;15.70;59.20;;;;;;5051467;28;20397;-73
2021/09/05 06:48:34;;;;;;;42.78;25.38;;;15.70;60.10;;;;;;5051188;28;20758;-74
2021/09/05 06:50:59;;;;;;;43.15;25.17;;;15.80;59.50;;;;;;5051546;28;20386;-72
2021/09/05 06:53:25;;;;;;;43.60;25.08;;;15.80;59.90;;;;;;5051032;28;20828;-72
2021/09/05 06:55:51;;;;;;;39.10;24.13;;;15.90;59.70;;;;;;5050913;28;20377;-73
2021/09/05 06:58:17;;;;;;;37.65;24.40;;;15.90;59.70;;;;;;5050119;28;20394;-73
2021/09/05 07:00:42;;;;;;;52.25;24.27;;;16.00;60.30;;;;;;5046722;28;20417;-76
2021/09/05 07:03:08;;;;;;;44.45;23.92;;;16.20;57.80;;;;;;5031386;28;20391;-78
2021/09/05 07:05:34;;;;;;;42.67;25.03;;;16.40;55.80;;;;;;5033677;28;20395;-76
2021/09/05 07:07:59;;;;;;;40.90;24.05;;;16.50;55.30;;;;;;5031125;28;20382;-76
2021/09/05 07:10:25;;;;;;;43.03;25.00;;;16.60;55.50;;;;;;5031509;28;20395;-76
2021/09/05 07:12:51;;;;;;;41.27;24.27;;;16.60;54.00;;;;;;5033193;28;20457;-74
2021/09/05 07:15:16;;;;;;;49.50;27.97;;;16.70;54.80;;;;;;5051108;28;20400;-76
2021/09/05 07:17:42;;;;;;;49.00;26.63;;;16.80;53.10;;;;;;5051407;28;20392;-76
2021/09/05 07:20:08;;;;;;;46.15;25.15;;;16.90;53.00;;;;;;5051437;28;20385;-76
2021/09/05 07:22:34;;;;;;;39.22;22.75;;;16.90;52.80;;;;;;5046270;28;20511;-75
2021/09/05 07:25:02;;;;;;;34.70;22.60;;;17.00;51.70;;;;;;5049234;28;20488;-77
2021/09/05 07:27:28;;;;;;;38.03;22.75;;;17.10;52.20;;;;;;5048104;28;20576;-75
2021/09/05 07:29:54;;;;;;;41.33;22.35;;;17.20;50.60;;;;;;5050743;28;20389;-74
2021/09/05 07:32:19;;;;;;;38.70;21.50;;;17.30;50.10;;;;;;5050667;28;20486;-74
2021/09/05 07:34:46;;;;;;;35.60;21.63;;;17.30;48.50;;;;;;5050343;28;20416;-74
2021/09/05 07:37:12;;;;;;;37.17;22.13;;;17.40;48.70;;;;;;5049981;28;20936;-75
2021/09/05 07:39:37;;;;;;;39.78;21.75;;;17.50;49.00;;;;;;5050094;28;20397;-75
2021/09/05 07:42:03;;;;;;;41.50;21.83;;;17.60;47.70;;;;;;5046205;28;20409;-75
2021/09/05 07:44:29;;;;;;;36.05;22.05;;;17.60;47.60;;;;;;5044669;28;20416;-76
2021/09/05 07:46:55;;;;;;;37.40;21.50;;;17.70;47.60;;;;;;5046237;28;20401;-75
2021/09/05 07:49:20;;;;;;;36.08;21.52;;;17.80;46.90;;;;;;5041218;28;20397;-75
2021/09/05 07:51:46;;;;;;;39.30;22.30;;;17.90;46.50;;;;;;5049499;28;20455;-75
2021/09/05 07:54:11;;;;;;;39.23;22.57;;;17.90;46.40;;;;;;5049307;28;20404;-75
2021/09/05 07:56:37;;;;;;;39.70;21.92;;;18.00;46.90;;;;;;5050343;28;20385;-76
2021/09/05 07:59:02;;;;;;;40.45;22.77;;;18.00;45.40;;;;;;5050166;28;20866;-78
2021/09/05 08:01:28;;;;;;;35.17;21.87;;;18.10;45.40;;;;;;5039764;28;20387;-77
2021/09/05 08:03:53;;;;;;;34.83;21.77;;;18.10;45.00;;;;;;5045057;28;20444;-76
2021/09/05 08:06:19;;;;;;;37.87;21.13;;;18.20;45.30;;;;;;5040587;28;20385;-77
2021/09/05 08:08:45;;;;;;;37.55;21.38;;;18.30;44.40;;;;;;5053787;28;20920;-76
2021/09/05 08:11:11;;;;;;;37.38;21.13;;;18.50;43.40;;;;;;5054307;28;20425;-77
2021/09/05 08:13:36;;;;;;;38.03;21.42;;;18.50;43.60;;;;;;5056546;28;20409;-76
2021/09/05 08:16:02;;;;;;;35.00;20.73;;;18.60;43.70;;;;;;5058130;28;20882;-76
2021/09/05 08:18:35;;;;;;;39.08;21.13;;;18.70;43.10;;;;;;5055735;28;20389;-76
2021/09/05 08:21:02;;;;;;;33.83;20.70;;;18.70;43.10;;;;;;5053734;28;20389;-76
2021/09/05 08:23:27;;;;;;;32.25;19.45;;;18.90;42.70;;;;;;5050153;28;20447;-77
2021/09/05 08:25:53;;;;;;;37.63;21.63;;;19.00;42.50;;;;;;5049114;28;20890;-76
2021/09/05 08:28:19;;;;;;;39.38;22.73;;;19.20;41.80;;;;;;5052907;28;20407;-74
2021/09/05 08:30:45;;;;;;;30.17;20.40;;;19.30;42.50;;;;;;5054159;28;20377;-75
2021/09/05 08:33:10;;;;;;;37.00;22.03;;;19.50;40.80;;;;;;5049223;28;20446;-75
2021/09/05 08:35:37;;;;;;;42.20;21.40;;;19.40;39.70;;;;;;5036723;28;20394;-73
2021/09/05 08:38:03;;;;;;;33.67;21.00;;;19.50;40.70;;;;;;5053775;28;20446;-76
2021/09/05 08:40:28;;;;;;;35.85;20.30;;;19.50;40.80;;;;;;5053290;28;20397;-77
2021/09/05 08:42:54;;;;;;;36.13;20.50;;;19.50;40.90;;;;;;5052851;28;20908;-76
2021/09/05 08:45:20;;;;;;;35.05;19.77;;;19.70;40.90;;;;;;5053651;28;20400;-76
2021/09/05 08:47:45;;;;;;;34.03;19.25;;;19.90;40.50;;;;;;5047241;28;20494;-78
2021/09/05 08:50:12;;;;;;;32.30;20.00;;;19.90;39.40;;;;;;5047757;28;20569;-74
2021/09/05 08:52:38;;;;;;;33.88;20.55;;;20.00;38.90;;;;;;5053303;28;20401;-77
2021/09/05 08:55:05;;;;;;;35.97;20.67;;;20.00;38.10;;;;;;5054379;28;20397;-77
2021/09/05 08:57:31;;;;;;;33.57;20.37;;;20.00;38.10;;;;;;5048160;28;20391;-78
2021/09/05 08:59:56;;;;;;;34.60;20.20;;;20.10;38.20;;;;;;5050708;28;20398;-80
2021/09/05 09:02:22;;;;;;;29.75;19.55;;;20.40;37.80;;;;;;5041173;28;20397;-73
2021/09/05 09:04:50;;;;;;;34.63;19.90;;;20.60;36.70;;;;;;5053060;28;20389;-74
2021/09/05 09:07:16;;;;;;;28.85;17.83;;;20.50;36.90;;;;;;5053052;28;20775;-75
2021/09/05 09:09:59;;;;;;;28.42;18.50;;;20.60;37.20;;;;;;5055138;28;20385;-73
2021/09/05 09:12:39;;;;;;;32.58;20.00;;;20.60;38.00;;;;;;5045339;28;20411;-74
2021/09/05 09:15:30;;;;;;;32.65;19.58;;;20.60;37.30;;;;;;5052776;28;20469;-77
2021/09/05 09:17:59;;;;;;;26.85;18.58;;;20.70;37.90;;;;;;5054175;28;20393;-74
2021/09/05 09:20:43;;;;;;;31.40;18.70;;;20.80;37.60;;;;;;5052534;28;20755;-72
2021/09/05 09:23:10;;;;;;;30.83;19.15;;;20.90;36.90;;;;;;5052778;28;20551;-74
2021/09/05 09:25:36;;;;;;;31.27;18.58;;;21.10;36.70;;;;;;5051685;28;20393;-76
2021/09/05 09:28:20;;;;;;;29.65;18.65;;;21.10;35.70;;;;;;5045571;28;20414;-74
2021/09/05 09:30:46;;;;;;;30.65;20.77;;;21.20;35.50;;;;;;5038669;28;20418;-74
2021/09/05 09:33:19;;;;;;;29.08;18.23;;;21.10;35.10;;;;;;5051002;28;20758;-75
2021/09/05 09:35:50;;;;;;;33.80;20.40;;;21.30;35.30;;;;;;5051444;28;20432;-74
2021/09/05 09:38:16;;;;;;;29.02;17.95;;;21.40;34.90;;;;;;5052892;28;20442;-75
2021/09/05 09:40:42;;;;;;;30.85;19.27;;;21.50;34.90;;;;;;5053197;28;20535;-76
2021/09/05 09:43:20;;;;;;;25.60;18.92;;;21.60;34.20;;;;;;5052319;28;20411;-76
2021/09/05 09:45:46;;;;;;;27.25;18.80;;;21.70;33.80;;;;;;5052422;28;20747;-74
2021/09/05 09:48:25;;;;;;;29.85;18.90;;;21.60;34.30;;;;;;5031928;28;20398;-75
2021/09/05 09:50:59;;;;;;;27.80;18.98;;;21.80;33.70;;;;;;5046857;28;20389;-75
2021/09/05 09:53:25;;;;;;;29.80;19.20;;;21.80;32.70;;;;;;5051851;28;20552;-76
2021/09/05 09:55:52;;;;;;;29.63;18.60;;;22.00;32.50;;;;;;5040683;28;20801;-75
2021/09/05 09:58:17;;;;;;;27.10;19.00;;;22.00;32.60;;;;;;5049919;28;20708;-75
2021/09/05 10:00:43;;;;;;;28.77;19.33;;;22.30;33.00;;;;;;5051289;28;20401;-75
2021/09/05 10:03:11;;;;;;;30.85;19.52;;;22.40;31.90;;;;;;5051460;28;20404;-74
2021/09/05 10:05:39;;;;;;;28.42;19.48;;;22.30;31.40;;;;;;5052252;28;20428;-75
2021/09/05 10:08:06;;;;;;;25.15;18.85;;;22.30;31.90;;;;;;5050573;28;20496;-74
2021/09/05 10:10:33;;;;;;;25.58;18.55;;;22.30;32.70;;;;;;5040778;28;20393;-77
2021/09/05 10:13:00;;;;;;;29.13;18.75;;;22.40;31.80;;;;;;5049211;28;20405;-77
2021/09/05 10:15:26;;;;;;;28.27;19.05;;;22.60;30.80;;;;;;5047237;28;20812;-77
2021/09/05 10:17:52;;;;;;;30.63;19.38;;;22.70;31.20;;;;;;5050070;28;20778;-75
2021/09/05 10:20:18;;;;;;;27.10;17.83;;;22.80;30.40;;;;;;5051226;28;20420;-76
2021/09/05 10:22:44;;;;;;;28.95;19.48;;;22.70;30.60;;;;;;5051110;28;20477;-77
2021/09/05 10:25:11;;;;;;;28.45;18.95;;;22.80;30.30;;;;;;5048201;28;20501;-75
2021/09/05 10:27:38;;;;;;;28.80;19.42;;;22.70;30.70;;;;;;5049153;28;20400;-76
2021/09/05 10:30:07;;;;;;;28.60;19.40;;;22.80;30.80;;;;;;5049164;28;20405;-75
2021/09/05 10:32:53;;;;;;;28.13;18.83;;;22.80;30.50;;;;;;5045061;28;20446;-76
2021/09/05 10:35:44;;;;;;;26.67;18.90;;;22.80;30.10;;;;;;5043880;28;20424;-74
2021/09/05 10:38:21;;;;;;;28.85;19.30;;;22.90;30.80;;;;;;5044087;28;20778;-76
2021/09/05 10:40:48;;;;;;;28.77;19.17;;;22.90;29.60;;;;;;5050128;28;20397;-77
2021/09/05 10:43:15;;;;;;;28.58;19.13;;;22.90;30.30;;;;;;5050715;28;20447;-76
2021/09/05 10:45:43;;;;;;;29.43;19.53;;;22.90;30.90;;;;;;5048197;28;20482;-75
2021/09/05 10:48:35;;;;;;;29.30;19.40;;;23.00;29.40;;;;;;5049322;28;20809;-76
2021/09/05 10:51:21;;;;;;;27.88;19.50;;;22.90;29.80;;;;;;5050209;28;20401;-76
2021/09/05 10:53:52;;;;;;;27.88;18.40;;;23.00;29.60;;;;;;5051358;28;20539;-76
2021/09/05 10:56:23;;;;;;;27.07;17.03;;;23.40;29.00;;;;;;5050332;28;20996;-77
2021/09/05 10:58:49;;;;;;;26.23;18.17;;;23.60;28.00;;;;;;5050354;28;20451;-76
2021/09/05 11:01:48;;;;;;;28.60;18.67;;;23.40;27.70;;;;;;5049856;28;20397;-76
2021/09/05 11:04:16;;;;;;;25.83;17.10;;;23.40;28.20;;;;;;5034541;28;20431;-74
2021/09/05 11:06:50;;;;;;;27.17;17.70;;;23.40;28.50;;;;;;5050120;28;20401;-77
2021/09/05 11:09:19;;;;;;;24.05;17.92;;;23.50;29.00;;;;;;5049907;28;20417;-78
2021/09/05 11:12:14;;;;;;;32.13;17.45;;;23.70;28.50;;;;;;5055733;28;20460;-79
2021/09/05 11:14:46;;;;;;;22.80;16.63;;;23.80;27.70;;;;;;5057012;28;20489;-78
2021/09/05 11:17:12;;;;;;;29.85;17.48;;;23.80;26.70;;;;;;5046971;28;20397;-77
2021/09/05 11:19:56;;;;;;;24.40;16.42;;;23.70;27.20;;;;;;5048486;28;20398;-78
2021/09/05 11:22:25;;;;;;;26.02;17.35;;;23.80;27.10;;;;;;5051089;28;20397;-77
2021/09/05 11:25:11;;;;;;;22.50;17.30;;;23.80;27.00;;;;;;5050994;28;20388;-79
2021/09/05 11:27:38;;;;;;;27.42;16.90;;;23.80;27.30;;;;;;5053917;28;20409;-79
2021/09/05 11:30:07;;;;;;;25.73;17.00;;;23.70;27.60;;;;;;5056379;28;20871;-78
2021/09/05 11:32:32;;;;;;;25.77;17.23;;;23.70;27.40;;;;;;5054530;28;20409;-77
2021/09/05 11:34:58;;;;;;;26.23;17.50;;;23.60;28.80;;;;;;5049373;28;20393;-78
2021/09/05 11:37:31;;;;;;;25.65;17.50;;;23.70;27.80;;;;;;5050724;28;20394;-78
2021/09/05 11:40:03;;;;;;;22.30;15.43;;;23.90;27.70;;;;;;5041905;28;20417;-77
2021/09/05 11:42:28;;;;;;;25.20;16.48;;;24.10;27.10;;;;;;5046633;28;20447;-78
2021/09/05 11:45:01;;;;;;;29.30;17.40;;;24.10;26.50;;;;;;5043309;28;20424;-75
2021/09/05 11:47:27;;;;;;;23.77;17.08;;;24.10;27.30;;;;;;5048159;28;20492;-78
2021/09/05 11:49:55;;;;;;;24.50;16.90;;;24.20;26.10;;;;;;5047313;28;20983;-75
2021/09/05 11:52:26;;;;;;;24.80;15.43;;;24.30;26.00;;;;;;5049844;28;20409;-76
2021/09/05 11:55:05;;;;;;;23.85;15.07;;;24.40;26.50;;;;;;5045663;28;20436;-75
2021/09/05 11:57:36;;;;;;;26.17;15.82;;;24.60;25.80;;;;;;5048810;28;20886;-75
2021/09/05 12:00:07;;;;;;;24.45;15.50;;;24.50;25.10;;;;;;5049846;28;20448;-75
2021/09/05 12:02:36;;;;;;;26.57;15.73;;;24.40;25.10;;;;;;5040402;28;20436;-74
2021/09/05 12:05:05;;;;;;;21.45;15.80;;;24.50;25.80;;;;;;5047494;28;20416;-74
2021/09/05 12:07:37;;;;;;;22.65;15.02;;;24.60;24.90;;;;;;5048642;28;20401;-74
2021/09/05 12:10:20;;;;;;;27.75;17.30;;;24.60;24.80;;;;;;5049250;28;20404;-74
2021/09/05 12:13:10;;;;;;;22.40;15.90;;;24.60;25.10;;;;;;5049053;28;20967;-74
2021/09/05 12:15:37;;;;;;;22.70;15.73;;;24.60;24.60;;;;;;5048882;28;20397;-74
2021/09/05 12:18:15;;;;;;;22.33;15.40;;;24.60;24.70;;;;;;5048898;28;20830;-73
2021/09/05 12:20:42;;;;;;;28.30;17.65;;;24.70;24.70;;;;;;5051902;28;20897;-75
2021/09/05 12:23:19;;;;;;;24.40;17.23;;;24.80;24.70;;;;;;5051425;28;20541;-74
2021/09/05 12:25:44;;;;;;;21.55;14.77;;;24.60;24.70;;;;;;5045249;28;20534;-75
2021/09/05 12:28:11;;;;;;;21.45;13.80;;;24.80;24.80;;;;;;5051033;28;20436;-75